createdAt,value
2022-10-29T00:01:07.431Z,11.75
2022-10-29T00:03:34.247Z,11.75
2022-10-29T00:06:04.539Z,11.75
2022-10-29T00:08:34.869Z,11.74
2022-10-29T00:11:34.731Z,11.70
2022-10-29T00:14:01.985Z,11.73
2022-10-29T00:16:36.207Z,11.71
2022-10-29T00:19:04.365Z,11.73
2022-10-29T00:21:32.045Z,11.74
2022-10-29T00:23:59.018Z,11.72
2022-10-29T00:26:29.139Z,11.73
2022-10-29T00:28:57.310Z,11.74
2022-10-29T00:31:25.203Z,11.76
2022-10-29T00:33:54.845Z,11.74
2022-10-29T00:36:26.422Z,11.74
2022-10-29T00:38:53.608Z,11.75
2022-10-29T00:41:26.725Z,11.75
2022-10-29T00:44:19.092Z,11.72
2022-10-29T00:46:51.709Z,11.75
2022-10-29T00:49:19.304Z,11.77
2022-10-29T00:51:47.853Z,11.76
2022-10-29T00:54:16.665Z,11.77
2022-10-29T00:56:53.289Z,11.79
2022-10-29T00:59:20.263Z,11.78
2022-10-29T01:01:49.261Z,11.79
2022-10-29T01:04:17.931Z,11.81
2022-10-29T01:06:47.291Z,11.81
2022-10-29T01:09:14.394Z,11.81
2022-10-29T01:11:50.650Z,11.81
2022-10-29T01:14:40.785Z,11.83
2022-10-29T01:17:47.396Z,11.82
2022-10-29T01:20:55.269Z,11.83
2022-10-29T01:23:40.381Z,11.84
2022-10-29T01:26:12.827Z,11.86
2022-10-29T01:29:00.661Z,11.83
2022-10-29T01:32:15.274Z,11.83
2022-10-29T01:34:51.403Z,11.86
2022-10-29T01:37:36.763Z,11.83
2022-10-29T01:40:39.728Z,11.85
2022-10-29T01:43:21.076Z,11.87
2022-10-29T01:46:05.840Z,11.90
2022-10-29T01:48:37.542Z,11.87
2022-10-29T01:51:13.644Z,11.93
2022-10-29T01:53:41.734Z,11.88
2022-10-29T01:56:08.571Z,11.89
2022-10-29T01:58:37.255Z,11.89
2022-10-29T02:01:16.000Z,11.88
2022-10-29T02:04:21.637Z,11.86
2022-10-29T02:07:22.103Z,11.89
2022-10-29T02:10:38.951Z,11.85
2022-10-29T02:13:05.800Z,11.84
2022-10-29T02:15:48.466Z,11.85
2022-10-29T02:18:17.125Z,11.84
2022-10-29T02:20:45.490Z,11.86
2022-10-29T02:23:13.435Z,11.87
2022-10-29T02:25:40.393Z,11.86
2022-10-29T02:28:07.250Z,11.84
2022-10-29T02:30:34.235Z,11.84
2022-10-29T02:33:01.040Z,11.89
2022-10-29T02:35:28.132Z,11.88
2022-10-29T02:37:54.918Z,11.87
2022-10-29T02:40:21.703Z,11.88
2022-10-29T02:42:48.462Z,11.89
2022-10-29T02:45:15.249Z,11.92
2022-10-29T02:47:42.027Z,11.88
2022-10-29T02:50:09.766Z,11.92
2022-10-29T02:52:36.584Z,11.92
2022-10-29T02:55:03.747Z,11.93
2022-10-29T02:57:30.516Z,11.90
2022-10-29T02:59:57.286Z,11.91
2022-10-29T03:02:24.540Z,11.93
2022-10-29T03:04:51.391Z,11.93
2022-10-29T03:07:18.205Z,11.88
2022-10-29T03:09:44.981Z,11.89
2022-10-29T03:12:11.731Z,11.92
2022-10-29T03:14:38.508Z,11.88
2022-10-29T03:17:05.313Z,11.85
2022-10-29T03:19:32.074Z,11.85
2022-10-29T03:21:58.835Z,11.88
2022-10-29T03:24:25.576Z,11.87
2022-10-29T03:26:52.354Z,11.84
2022-10-29T03:29:19.094Z,11.85
2022-10-29T03:31:45.870Z,11.88
2022-10-29T03:34:12.647Z,11.88
2022-10-29T03:36:39.454Z,11.85
2022-10-29T03:39:06.468Z,11.84
2022-10-29T03:41:33.229Z,11.83
2022-10-29T03:43:59.957Z,11.84
2022-10-29T03:46:26.843Z,11.87
2022-10-29T03:48:53.598Z,11.86
2022-10-29T03:51:20.735Z,11.87
2022-10-29T03:53:47.519Z,11.92
2022-10-29T03:56:14.322Z,11.84
2022-10-29T03:58:41.074Z,11.82
2022-10-29T04:01:10.566Z,11.83
2022-10-29T04:03:39.493Z,11.87
2022-10-29T04:06:13.148Z,11.84
2022-10-29T04:08:40.862Z,11.83
2022-10-29T04:11:11.965Z,11.85
2022-10-29T04:13:39.798Z,11.86
2022-10-29T04:16:06.932Z,11.85
2022-10-29T04:18:33.793Z,11.82
2022-10-29T04:29:24.184Z,11.86
2022-10-29T04:31:51.311Z,11.85
2022-10-29T04:34:18.615Z,11.86
2022-10-29T04:36:45.975Z,11.88
2022-10-29T04:39:12.811Z,11.90
2022-10-29T04:41:39.966Z,11.87
2022-10-29T04:44:06.754Z,11.90
2022-10-29T04:46:33.577Z,11.90
2022-10-29T04:49:00.444Z,11.92
2022-10-29T04:51:27.606Z,11.93
2022-10-29T04:53:54.621Z,11.95
2022-10-29T04:56:21.383Z,11.97
2022-10-29T04:58:52.755Z,12.01
2022-10-29T05:01:20.072Z,12.02
2022-10-29T05:03:47.082Z,12.00
2022-10-29T05:06:13.866Z,12.03
2022-10-29T05:08:40.645Z,12.07
2022-10-29T05:11:08.185Z,12.04
2022-10-29T05:13:35.559Z,12.11
2022-10-29T05:16:02.956Z,12.09
2022-10-29T05:18:29.759Z,12.09
2022-10-29T05:20:57.434Z,12.14
2022-10-29T05:23:24.592Z,12.14
2022-10-29T05:25:52.582Z,12.15
2022-10-29T05:28:22.068Z,12.17
2022-10-29T05:30:51.203Z,12.18
2022-10-29T05:33:22.963Z,12.19
2022-10-29T05:35:50.687Z,12.20
2022-10-29T05:38:17.926Z,12.17
2022-10-29T05:40:45.526Z,12.13
2022-10-29T05:43:17.556Z,12.16
2022-10-29T05:45:45.043Z,12.14
2022-10-29T05:51:00.276Z,12.15
2022-10-29T05:53:27.047Z,12.15
2022-10-29T05:55:53.830Z,12.16
2022-10-29T05:58:20.582Z,12.12
2022-10-29T06:00:47.373Z,12.14
2022-10-29T06:03:17.979Z,12.11
2022-10-29T06:05:47.102Z,12.14
2022-10-29T06:08:14.334Z,12.13
2022-10-29T06:10:41.549Z,12.14
2022-10-29T06:13:16.567Z,12.13
2022-10-29T06:15:43.212Z,12.11
2022-10-29T06:18:11.103Z,12.12
2022-10-29T06:20:38.910Z,12.13
2022-10-29T06:23:06.782Z,12.15
2022-10-29T06:25:33.585Z,12.15
2022-10-29T06:28:09.216Z,12.13
2022-10-29T06:30:36.965Z,12.13
2022-10-29T06:33:05.428Z,12.15
2022-10-29T06:38:19.825Z,12.14
2022-10-29T06:40:55.347Z,12.14
2022-10-29T06:43:22.280Z,12.12
2022-10-29T06:45:50.311Z,12.12
2022-10-29T06:48:21.764Z,12.14
2022-10-29T06:50:49.403Z,12.15
2022-10-29T06:53:16.778Z,12.14
2022-10-29T06:55:43.560Z,12.12
2022-10-29T06:58:16.699Z,12.11
2022-10-29T07:00:44.577Z,12.15
2022-10-29T07:03:17.813Z,12.12
2022-10-29T07:05:45.070Z,12.06
2022-10-29T07:08:12.759Z,12.13
2022-10-29T07:10:40.971Z,12.11
2022-10-29T07:13:07.726Z,12.12
2022-10-29T07:15:34.553Z,12.14
2022-10-29T07:18:03.717Z,12.16
2022-10-29T07:20:34.155Z,12.17
2022-10-29T07:23:01.621Z,12.17
2022-10-29T07:25:29.896Z,12.20
2022-10-29T07:28:11.910Z,12.14
2022-10-29T07:30:39.351Z,12.21
2022-10-29T07:33:06.209Z,12.23
2022-10-29T07:35:34.717Z,12.25
2022-10-29T07:38:08.793Z,12.29
2022-10-29T07:40:47.377Z,12.26
2022-10-29T07:43:14.707Z,12.30
2022-10-29T07:45:44.421Z,12.33
2022-10-29T07:48:11.622Z,12.36
2022-10-29T07:50:39.444Z,12.37
2022-10-29T07:53:07.636Z,12.43
2022-10-29T07:55:35.014Z,12.46
2022-10-29T07:58:05.631Z,12.49
2022-10-29T08:00:36.139Z,12.53
2022-10-29T08:03:03.248Z,12.58
2022-10-29T08:05:31.125Z,12.62
2022-10-29T08:07:59.287Z,12.62
2022-10-29T08:10:27.300Z,12.65
2022-10-29T08:12:57.605Z,12.68
2022-10-29T08:15:28.214Z,12.72
2022-10-29T08:17:55.803Z,12.74
2022-10-29T08:20:26.051Z,12.76
2022-10-29T08:22:53.497Z,12.82
2022-10-29T08:25:21.360Z,12.83
2022-10-29T08:28:02.754Z,12.81
2022-10-29T08:30:30.781Z,12.88
2022-10-29T08:32:58.198Z,12.87
2022-10-29T08:35:25.217Z,12.94
2022-10-29T08:37:52.017Z,12.92
2022-10-29T08:40:35.226Z,12.95
2022-10-29T08:43:34.124Z,12.93
2022-10-29T08:46:01.276Z,12.96
2022-10-29T08:48:34.022Z,12.96
2022-10-29T08:51:14.987Z,12.99
2022-10-29T08:53:58.909Z,13.03
2022-10-29T08:56:38.442Z,13.06
2022-10-29T08:59:11.361Z,13.13
2022-10-29T09:01:39.052Z,13.17
2022-10-29T09:04:33.714Z,13.18
2022-10-29T09:07:48.623Z,13.22
2022-10-29T09:10:29.038Z,13.18
2022-10-29T09:13:40.792Z,13.19
2022-10-29T09:16:48.675Z,13.26
2022-10-29T09:19:23.570Z,13.23
2022-10-29T09:22:04.132Z,13.29
2022-10-29T09:24:45.528Z,13.29
2022-10-29T09:27:24.719Z,13.32
2022-10-29T09:30:22.085Z,13.36
2022-10-29T09:32:56.771Z,13.37
2022-10-29T09:35:44.753Z,13.38
2022-10-29T09:38:19.865Z,13.45
2022-10-29T09:40:46.797Z,13.42
2022-10-29T09:43:19.861Z,13.48
2022-10-29T09:46:01.339Z,13.52
2022-10-29T09:48:44.722Z,13.55
2022-10-29T09:51:35.672Z,13.55
2022-10-29T09:54:02.922Z,13.64
2022-10-29T09:56:30.072Z,13.66
2022-10-29T09:59:26.776Z,13.72
2022-10-29T10:01:53.781Z,13.70
2022-10-29T10:04:46.073Z,13.75
2022-10-29T10:07:21.920Z,13.79
2022-10-29T10:09:55.800Z,13.79
2022-10-29T10:12:38.386Z,13.81
2022-10-29T10:15:15.765Z,13.83
2022-10-29T10:18:01.382Z,13.87
2022-10-29T10:20:35.807Z,13.90
2022-10-29T10:23:20.842Z,13.91
2022-10-29T10:25:48.102Z,13.98
2022-10-29T10:28:24.361Z,13.97
2022-10-29T10:31:16.692Z,14.01
2022-10-29T10:33:53.651Z,14.11
2022-10-29T10:36:29.436Z,14.18
2022-10-29T10:39:00.642Z,14.27
2022-10-29T10:41:34.769Z,14.33
2022-10-29T10:44:04.677Z,14.35
2022-10-29T10:46:43.841Z,14.45
2022-10-29T10:49:35.673Z,14.55
2022-10-29T10:52:25.980Z,14.59
2022-10-29T10:55:07.366Z,14.71
2022-10-29T10:57:50.415Z,14.77
2022-10-29T11:00:22.763Z,14.78
2022-10-29T11:02:58.446Z,14.83
2022-10-29T11:05:35.978Z,14.83
2022-10-29T11:08:18.215Z,14.87
2022-10-29T11:11:06.092Z,14.93
2022-10-29T11:13:34.971Z,14.97
2022-10-29T11:16:23.462Z,15.07
2022-10-29T11:19:08.820Z,15.14
2022-10-29T11:21:37.579Z,15.20
2022-10-29T11:24:20.869Z,15.21
2022-10-29T11:26:54.942Z,15.30
2022-10-29T11:29:21.637Z,15.38
2022-10-29T11:32:05.420Z,15.44
2022-10-29T11:34:44.310Z,15.47
2022-10-29T11:37:39.103Z,15.50
2022-10-29T11:40:28.895Z,15.64
2022-10-29T11:42:55.691Z,15.64
2022-10-29T11:45:57.990Z,15.71
2022-10-29T11:48:45.057Z,15.80
2022-10-29T11:51:48.898Z,15.86
2022-10-29T11:55:00.610Z,15.94
2022-10-29T11:57:39.672Z,15.98
2022-10-29T12:00:21.388Z,16.04
2022-10-29T12:03:03.406Z,16.11
2022-10-29T12:05:42.211Z,16.17
2022-10-29T12:08:27.856Z,16.28
2022-10-29T12:11:31.365Z,16.40
2022-10-29T12:14:30.088Z,16.55
2022-10-29T12:17:14.109Z,16.71
2022-10-29T12:19:55.996Z,16.89
2022-10-29T12:22:38.991Z,17.01
2022-10-29T12:25:51.900Z,17.09
2022-10-29T12:28:53.484Z,17.10
2022-10-29T12:31:56.163Z,17.03
2022-10-29T12:34:53.295Z,17.03
2022-10-29T12:37:32.378Z,16.99
2022-10-29T12:40:16.304Z,16.97
2022-10-29T12:42:43.953Z,16.92
2022-10-29T12:46:21.473Z,16.92
2022-10-29T12:49:05.806Z,16.93
2022-10-29T12:52:01.812Z,16.92
2022-10-29T12:54:42.373Z,16.95
2022-10-29T12:57:15.186Z,16.91
2022-10-29T12:59:44.484Z,16.97
2022-10-29T13:02:37.545Z,16.96
2022-10-29T13:05:07.149Z,16.97
2022-10-29T13:07:35.316Z,16.95
2022-10-29T13:10:24.197Z,16.98
2022-10-29T13:13:16.135Z,16.95
2022-10-29T13:15:45.629Z,16.99
2022-10-29T13:18:12.327Z,17.01
2022-10-29T13:20:42.387Z,17.03
2022-10-29T13:23:24.435Z,16.99
2022-10-29T13:25:56.385Z,17.02
2022-10-29T13:28:23.082Z,17.01
2022-10-29T13:30:53.273Z,17.03
2022-10-29T13:33:29.064Z,17.01
2022-10-29T13:36:15.581Z,17.05
2022-10-29T13:39:04.621Z,17.06
2022-10-29T13:41:44.681Z,17.09
2022-10-29T13:44:38.138Z,17.12
2022-10-29T13:47:20.669Z,17.13
2022-10-29T13:49:49.190Z,17.21
2022-10-29T13:52:19.863Z,17.22
2022-10-29T13:54:54.527Z,17.24
2022-10-29T13:57:42.946Z,17.25
2022-10-29T14:00:12.774Z,17.28
2022-10-29T14:02:42.753Z,17.27
2022-10-29T14:05:30.133Z,17.26
2022-10-29T14:08:17.819Z,17.25
2022-10-29T14:10:48.869Z,17.25
2022-10-29T14:13:44.748Z,17.26
2022-10-29T14:16:15.567Z,17.25
2022-10-29T14:18:45.834Z,17.27
2022-10-29T14:21:38.818Z,17.26
2022-10-29T14:24:09.100Z,17.31
2022-10-29T14:26:41.484Z,17.35
2022-10-29T14:29:25.899Z,17.34
2022-10-29T14:32:14.136Z,17.34
2022-10-29T14:34:42.048Z,17.39
2022-10-29T14:37:28.863Z,17.40
2022-10-29T14:40:00.160Z,17.42
2022-10-29T14:42:37.659Z,17.43
2022-10-29T14:45:30.045Z,17.43
2022-10-29T14:48:03.316Z,17.45
2022-10-29T14:50:31.447Z,17.47
2022-10-29T14:53:03.132Z,17.45
2022-10-29T14:55:40.303Z,17.47
2022-10-29T14:58:10.309Z,17.47
2022-10-29T15:00:38.581Z,17.46
2022-10-29T15:03:07.443Z,17.49
2022-10-29T15:05:37.565Z,17.52
2022-10-29T15:08:11.325Z,17.55
2022-10-29T15:11:04.745Z,17.58
2022-10-29T15:13:35.036Z,17.62
2022-10-29T15:16:04.159Z,17.67
2022-10-29T15:18:34.055Z,17.68
2022-10-29T15:21:01.523Z,17.70
2022-10-29T15:23:34.232Z,17.69
2022-10-29T15:26:12.848Z,17.70
2022-10-29T15:28:43.883Z,17.68
2022-10-29T15:31:46.357Z,17.68
2022-10-29T15:34:33.896Z,17.69
2022-10-29T15:37:20.347Z,17.65
2022-10-29T15:40:01.244Z,17.67
2022-10-29T15:42:32.669Z,17.68
2022-10-29T15:45:08.902Z,17.65
2022-10-29T15:47:42.098Z,17.66
2022-10-29T15:50:17.081Z,17.62
2022-10-29T15:52:52.767Z,17.57
2022-10-29T15:55:31.074Z,17.52
2022-10-29T15:58:04.493Z,17.47
2022-10-29T16:00:32.847Z,17.43
2022-10-29T16:03:24.055Z,17.43
2022-10-29T16:06:04.209Z,17.41
2022-10-29T16:08:42.709Z,17.36
2022-10-29T16:11:20.257Z,17.31
2022-10-29T16:13:51.831Z,17.26
2022-10-29T16:16:25.049Z,17.20
2022-10-29T16:18:52.917Z,17.14
2022-10-29T16:21:24.164Z,17.10
2022-10-29T16:23:52.042Z,17.04
2022-10-29T16:26:23.203Z,17.05
2022-10-29T16:28:52.727Z,17.03
2022-10-29T16:31:23.380Z,16.98
2022-10-29T16:33:53.007Z,16.99
2022-10-29T16:36:20.164Z,16.93
2022-10-29T16:38:46.987Z,16.92
2022-10-29T16:41:17.354Z,16.89
2022-10-29T16:43:45.227Z,16.89
2022-10-29T16:46:13.322Z,16.86
2022-10-29T16:48:40.959Z,16.81
2022-10-29T16:51:08.461Z,16.79
2022-10-29T16:53:35.663Z,16.73
2022-10-29T16:56:02.845Z,16.67
2022-10-29T16:58:29.685Z,16.67
2022-10-29T17:01:10.630Z,16.64
2022-10-29T17:03:39.477Z,16.57
2022-10-29T17:06:12.051Z,16.53
2022-10-29T17:08:39.000Z,16.51
2022-10-29T17:11:10.364Z,16.51
2022-10-29T17:13:37.882Z,16.48
2022-10-29T17:16:10.244Z,16.46
2022-10-29T17:18:37.229Z,16.43
2022-10-29T17:21:04.246Z,16.45
2022-10-29T17:23:33.310Z,16.44
2022-10-29T17:26:00.409Z,16.42
2022-10-29T17:28:28.355Z,16.44
2022-10-29T17:30:55.190Z,16.43
2022-10-29T17:33:21.978Z,16.43
2022-10-29T17:35:48.823Z,16.44
2022-10-29T17:38:15.891Z,16.42
2022-10-29T17:40:46.631Z,16.43
2022-10-29T17:43:13.682Z,16.41
2022-10-29T17:45:42.165Z,16.40
2022-10-29T17:48:08.982Z,16.42
2022-10-29T17:50:36.366Z,16.38
2022-10-29T17:53:03.800Z,16.33
2022-10-29T17:55:33.863Z,16.34
2022-10-29T17:58:01.119Z,16.30
2022-10-29T18:00:28.335Z,16.28
2022-10-29T18:02:55.142Z,16.23
2022-10-29T18:05:22.277Z,16.22
2022-10-29T18:07:49.032Z,16.18
2022-10-29T18:10:17.315Z,16.14
2022-10-29T18:12:44.538Z,16.09
2022-10-29T18:15:11.381Z,16.05
2022-10-29T18:17:38.211Z,16.05
2022-10-29T18:20:05.749Z,16.03
2022-10-29T18:22:32.742Z,16.03
2022-10-29T18:24:59.513Z,16.01
2022-10-29T18:27:26.351Z,15.97
2022-10-29T18:29:53.247Z,15.99
2022-10-29T18:32:20.393Z,15.94
2022-10-29T18:34:47.232Z,15.91
2022-10-29T18:37:14.048Z,15.87
2022-10-29T18:39:40.874Z,15.85
2022-10-29T18:42:07.840Z,15.81
2022-10-29T18:44:34.909Z,15.76
2022-10-29T18:47:02.272Z,15.72
2022-10-29T18:49:29.021Z,15.70
2022-10-29T18:51:56.038Z,15.64
2022-10-29T18:54:22.954Z,15.59
2022-10-29T18:56:49.725Z,15.56
2022-10-29T18:59:16.992Z,15.54
2022-10-29T19:01:43.923Z,15.49
2022-10-29T19:04:15.841Z,15.45
2022-10-29T19:06:43.167Z,15.42
2022-10-29T19:09:12.342Z,15.41
2022-10-29T19:11:39.714Z,15.36
2022-10-29T19:14:10.574Z,15.35
2022-10-29T19:16:37.433Z,15.30
2022-10-29T19:19:08.507Z,15.32
2022-10-29T19:21:37.379Z,15.28
2022-10-29T19:24:06.173Z,15.27
2022-10-29T19:26:36.339Z,15.26
2022-10-29T19:29:05.847Z,15.21
2022-10-29T19:31:35.149Z,15.19
2022-10-29T19:34:06.234Z,15.15
2022-10-29T19:36:35.089Z,15.12
2022-10-29T19:39:02.304Z,15.09
2022-10-29T19:41:29.621Z,15.07
2022-10-29T19:44:03.454Z,15.03
2022-10-29T19:46:30.740Z,15.01
2022-10-29T19:48:58.570Z,14.97
2022-10-29T19:51:26.588Z,14.94
2022-10-29T19:53:53.426Z,14.93
2022-10-29T19:56:21.478Z,14.92
2022-10-29T19:58:48.365Z,14.91
2022-10-29T20:01:18.441Z,14.85
2022-10-29T20:03:46.949Z,14.82
2022-10-29T20:06:15.021Z,14.79
2022-10-29T20:08:41.951Z,14.78
2022-10-29T20:11:09.283Z,14.76
2022-10-29T20:13:36.845Z,14.76
2022-10-29T20:16:12.740Z,14.72
2022-10-29T20:18:39.607Z,14.69
2022-10-29T20:21:07.108Z,14.65
2022-10-29T20:23:34.455Z,14.61
2022-10-29T20:26:01.522Z,14.61
2022-10-29T20:28:28.293Z,14.55
2022-10-29T20:31:30.474Z,14.48
2022-10-29T20:33:59.889Z,14.46
2022-10-29T20:36:31.346Z,14.44
2022-10-29T20:38:58.534Z,14.40
2022-10-29T20:41:25.706Z,14.38
2022-10-29T20:43:55.782Z,14.34
2022-10-29T20:46:24.511Z,14.33
2022-10-29T20:48:51.781Z,14.26
2022-10-29T20:51:18.824Z,14.25
2022-10-29T20:53:45.666Z,14.24
2022-10-29T20:56:16.096Z,14.18
2022-10-29T20:58:43.940Z,14.18
2022-10-29T21:01:14.704Z,14.16
2022-10-29T21:03:42.811Z,14.14
2022-10-29T21:06:17.154Z,14.10
2022-10-29T21:08:45.756Z,14.06
2022-10-29T21:11:15.007Z,14.06
2022-10-29T21:13:42.034Z,14.03
2022-10-29T21:16:20.470Z,14.01
2022-10-29T21:18:51.611Z,14.01
2022-10-29T21:21:19.298Z,13.99
2022-10-29T21:23:46.134Z,13.96
2022-10-29T21:26:19.388Z,13.96
2022-10-29T21:28:48.050Z,13.91
2022-10-29T21:31:15.613Z,13.87
2022-10-29T21:33:42.876Z,13.81
2022-10-29T21:36:14.264Z,13.77
2022-10-29T21:38:41.327Z,13.77
2022-10-29T21:41:08.387Z,13.76
2022-10-29T21:43:35.199Z,13.70
2022-10-29T21:46:02.184Z,13.70
2022-10-29T21:48:29.456Z,13.67
2022-10-29T21:51:06.145Z,13.60
2022-10-29T21:53:33.402Z,13.59
2022-10-29T21:56:04.313Z,13.54
2022-10-29T21:58:31.729Z,13.50
2022-10-29T22:01:06.801Z,13.50
2022-10-29T22:03:34.568Z,13.42
2022-10-29T22:06:23.161Z,13.45
2022-10-29T22:08:56.623Z,13.42
2022-10-29T22:11:25.259Z,13.40
2022-10-29T22:13:53.713Z,13.37
2022-10-29T22:16:22.039Z,13.35
2022-10-29T22:18:50.129Z,13.35
2022-10-29T22:21:21.838Z,13.34
2022-10-29T22:23:50.612Z,13.29
2022-10-29T22:26:20.390Z,13.31
2022-10-29T22:28:48.594Z,13.25
2022-10-29T22:31:17.863Z,13.27
2022-10-29T22:33:45.669Z,13.27
2022-10-29T22:36:19.258Z,13.22
2022-10-29T22:38:46.186Z,13.26
2022-10-29T22:41:18.008Z,13.21
2022-10-29T22:43:45.437Z,13.20
2022-10-29T22:46:14.492Z,13.16
2022-10-29T22:48:43.722Z,13.13
2022-10-29T22:51:17.869Z,13.10
2022-10-29T22:53:46.204Z,13.06
2022-10-29T22:56:21.440Z,13.03
2022-10-29T22:58:48.701Z,12.99
2022-10-29T23:01:24.497Z,12.96
2022-10-29T23:03:51.977Z,12.93
2022-10-29T23:06:22.495Z,12.93
2022-10-29T23:08:53.090Z,12.93
2022-10-29T23:11:29.303Z,12.94
2022-10-29T23:13:59.193Z,12.96
2022-10-29T23:16:30.058Z,12.98
2022-10-29T23:19:01.076Z,13.01
2022-10-29T23:21:29.442Z,13.03
2022-10-29T23:23:57.140Z,13.04
2022-10-29T23:26:25.808Z,13.05
2022-10-29T23:28:52.653Z,13.03
2022-10-29T23:31:23.423Z,13.03
2022-10-29T23:33:54.514Z,13.05
2022-10-29T23:36:23.717Z,13.09
2022-10-29T23:38:58.913Z,13.12
2022-10-29T23:41:27.884Z,13.13
2022-10-29T23:43:54.903Z,13.13
2022-10-29T23:46:21.947Z,13.16
2022-10-29T23:48:49.293Z,13.18
2022-10-29T23:51:16.402Z,13.21
2022-10-29T23:53:43.193Z,13.19
2022-10-29T23:56:10.430Z,13.25
2022-10-29T23:58:37.229Z,13.27
